Ferry Kyoto2 — JI3701 — position and weather

sailwx.info

Track history (hours):
 
Tides and Currents Weather Stations Pressure Air Temp Water Temp Dewpoint Dewpoint Depression Visibility Wind Speed Wind Dir Waves Ship Positions

Ferry Kyoto2

Last reported at 2014-Jul-30 18:32 UTC. Time now 2014-Jul-30 23:18 UTC.
Position N 33°59' E 132°43'.

Length 167 m; draft 6 m.

Type: Passenger vessel. MMSI: 431301641.

Date/timePositionNaut miles runAvg speedWind from/ knotsBaromVisibWave heightAir tempDewpointWater temp
2014-Jul-30 18:32N 33°59' E 132°43'11118.5
2014-Jul-30 12:33N 34°35' E 134°50'2120.8
2014-Jul-30 11:33N 34°36' E 135°15'9 8.5
2014-Jul-30 10:30N 34°37' E 135°26'0 0.0
2014-Jul-30 09:30N 34°37' E 135°26'0 0.0
2014-Jul-30 08:30N 34°37' E 135°26'0 0.0
2014-Jul-30 07:30N 34°37' E 135°26'0 0.0
2014-Jul-30 06:30N 34°37' E 135°26'0 0.0
2014-Jul-30 05:30N 34°37' E 135°26'0 0.0
2014-Jul-30 04:30N 34°37' E 135°26'0 0.0
2014-Jul-30 03:30N 34°37' E 135°26'0 0.0
2014-Jul-30 02:30N 34°37' E 135°26'0 0.0
2014-Jul-30 01:30N 34°37' E 135°26'0 0.0
2014-Jul-30 00:30N 34°37' E 135°26'0 0.0
2014-Jul-29 23:30N 34°37' E 135°26'9 9.9
2014-Jul-29 22:33N 34°35' E 135°15'1918.7
2014-Jul-29 21:33N 34°34' E 134°52'10018.3
2014-Jul-29 16:05N 34°10' E 132°54'1121.1
2014-Jul-29 15:33N 34°01' E 132°46'2322.5
2014-Jul-29 14:33N 33°46' E 132°25'17 0.9
2014-Jul-28 18:34N 33°57' E 132°41'11018.4
2014-Jul-28 12:33N 34°33' E 134°47'2221.6
2014-Jul-28 11:33N 34°36' E 135°13'1110.3
2014-Jul-28 10:31N 34°37' E 135°26'0 0.0
2014-Jul-28 09:31N 34°37' E 135°26'0 0.0
2014-Jul-28 08:25N 34°37' E 135°26'0 0.0
2014-Jul-28 07:13N 34°37' E 135°26'0 0.0
2014-Jul-28 06:31N 34°37' E 135°26'0 0.0
2014-Jul-28 05:31N 34°37' E 135°26'0 0.0
2014-Jul-28 04:31N 34°37' E 135°26'0 0.0
2014-Jul-28 03:31N 34°37' E 135°26'0 0.0
2014-Jul-28 02:31N 34°37' E 135°26'0 0.0
2014-Jul-28 01:31N 34°37' E 135°26'0 0.0
2014-Jul-28 00:31N 34°37' E 135°26'0 0.0
2014-Jul-27 23:31N 34°37' E 135°26'8 7.8
2014-Jul-27 22:33N 34°35' E 135°17'1817.8
2014-Jul-27 21:33N 34°36' E 134°56'10918.2
2014-Jul-27 15:33N 34°04' E 132°49'2222.4
2014-Jul-27 14:33N 33°48' E 132°30'124 4.8
2014-Jul-26 12:32N 34°34' E 134°49'2121.3
2014-Jul-26 11:34N 34°36' E 135°14'10 9.8
2014-Jul-26 10:32N 34°37' E 135°26'0 0.0
2014-Jul-26 09:32N 34°37' E 135°26'0 0.0
2014-Jul-26 08:32N 34°37' E 135°26'0 0.0
2014-Jul-26 07:32N 34°37' E 135°26'0 0.0
2014-Jul-26 06:32N 34°37' E 135°26'0 0.0
2014-Jul-26 05:32N 34°37' E 135°26'0 0.0
2014-Jul-26 04:32N 34°37' E 135°26'0 0.0
2014-Jul-26 03:26N 34°37' E 135°26'0 0.0
2014-Jul-26 02:20N 34°37' E 135°26'0 0.0
2014-Jul-26 01:26N 34°37' E 135°26'0 0.0
2014-Jul-26 00:32N 34°37' E 135°26'0 0.0
2014-Jul-25 23:30N 34°37' E 135°26'1111.7
2014-Jul-25 22:33N 34°35' E 135°13'1918.5
2014-Jul-25 21:33N 34°34' E 134°50'10617.6
2014-Jul-25 15:31N 34°02' E 132°48'2621.7
2014-Jul-25 14:20N 33°46' E 132°24'131 5.1
2014-Jul-24 12:33N 34°35' E 134°51'2121.1
2014-Jul-24 11:33N 34°36' E 135°17'7 7.0
2014-Jul-24 10:30N 34°37' E 135°26'0 0.0
2014-Jul-24 09:30N 34°37' E 135°26'0 0.0
2014-Jul-24 08:24N 34°37' E 135°26'0 0.0
2014-Jul-24 07:30N 34°37' E 135°26'0 0.0
2014-Jul-24 06:30N 34°37' E 135°26'0 0.0
2014-Jul-24 05:24N 34°37' E 135°26'0 0.0
2014-Jul-24 04:30N 34°37' E 135°26'0 0.0
2014-Jul-24 03:30N 34°37' E 135°26'0 0.0
2014-Jul-24 02:30N 34°37' E 135°26'0 0.0
2014-Jul-24 01:30N 34°37' E 135°26'0 0.0
2014-Jul-24 00:30N 34°37' E 135°26'0 0.0
2014-Jul-23 23:31N 34°37' E 135°26'1212.2
2014-Jul-23 22:33N 34°36' E 135°12'1717.2
2014-Jul-23 21:34N 34°34' E 134°51'9918.1
2014-Jul-23 16:05N 34°09' E 132°55'1121.0
2014-Jul-23 15:33N 34°01' E 132°46'2521.1
2014-Jul-23 14:23N 33°45' E 132°23'21 1.1
2014-Jul-22 18:33N 33°58' E 132°43'11018.3
2014-Jul-22 12:33N 34°34' E 134°49'2020.6
2014-Jul-22 11:33N 34°36' E 135°14'1010.0
2014-Jul-22 10:33N 34°37' E 135°26'0 0.0
2014-Jul-22 09:33N 34°37' E 135°26'0 0.0
2014-Jul-22 08:33N 34°37' E 135°26'0 0.0
2014-Jul-22 07:27N 34°37' E 135°26'0 0.0
2014-Jul-22 06:33N 34°37' E 135°26'0 0.0
2014-Jul-22 05:30N 34°37' E 135°26'0 0.0
2014-Jul-22 04:30N 34°37' E 135°26'0 0.0
2014-Jul-22 03:30N 34°37' E 135°26'0 0.0
2014-Jul-22 02:18N 34°37' E 135°26'0 0.0
2014-Jul-22 01:30N 34°37' E 135°26'0 0.0
2014-Jul-22 00:30N 34°37' E 135°26'0 0.0
2014-Jul-21 23:33N 34°37' E 135°26'1312.7
2014-Jul-21 22:33N 34°35' E 135°11'1717.0
2014-Jul-21 21:34N 34°33' E 134°50'  
Track history (hours):
 
Tides and Currents Weather Stations Pressure Air Temp Water Temp Dewpoint Dewpoint Depression Visibility Wind Speed Wind Dir Waves Ship Positions

Ferry Kyoto2

Last reported at 2014-Jul-30 18:32 UTC. Time now 2014-Jul-30 23:18 UTC.
Position N 33°59' E 132°43'.

Length 167 m; draft 6 m.

Type: Passenger vessel. MMSI: 431301641.

Date/timePositionNaut miles runAvg speedWind from/ knotsBaromVisibWave heightAir tempDewpointWater temp
2014-Jul-30 18:32N 33°59' E 132°43'11118.5
2014-Jul-30 12:33N 34°35' E 134°50'2120.8
2014-Jul-30 11:33N 34°36' E 135°15'9 8.5
2014-Jul-30 10:30N 34°37' E 135°26'0 0.0
2014-Jul-30 09:30N 34°37' E 135°26'0 0.0
2014-Jul-30 08:30N 34°37' E 135°26'0 0.0
2014-Jul-30 07:30N 34°37' E 135°26'0 0.0
2014-Jul-30 06:30N 34°37' E 135°26'0 0.0
2014-Jul-30 05:30N 34°37' E 135°26'0 0.0
2014-Jul-30 04:30N 34°37' E 135°26'0 0.0
2014-Jul-30 03:30N 34°37' E 135°26'0 0.0
2014-Jul-30 02:30N 34°37' E 135°26'0 0.0
2014-Jul-30 01:30N 34°37' E 135°26'0 0.0
2014-Jul-30 00:30N 34°37' E 135°26'0 0.0
2014-Jul-29 23:30N 34°37' E 135°26'9 9.9
2014-Jul-29 22:33N 34°35' E 135°15'1918.7
2014-Jul-29 21:33N 34°34' E 134°52'10018.3
2014-Jul-29 16:05N 34°10' E 132°54'1121.1
2014-Jul-29 15:33N 34°01' E 132°46'2322.5
2014-Jul-29 14:33N 33°46' E 132°25'17 0.9
2014-Jul-28 18:34N 33°57' E 132°41'11018.4
2014-Jul-28 12:33N 34°33' E 134°47'2221.6
2014-Jul-28 11:33N 34°36' E 135°13'1110.3
2014-Jul-28 10:31N 34°37' E 135°26'0 0.0
2014-Jul-28 09:31N 34°37' E 135°26'0 0.0
2014-Jul-28 08:25N 34°37' E 135°26'0 0.0
2014-Jul-28 07:13N 34°37' E 135°26'0 0.0
2014-Jul-28 06:31N 34°37' E 135°26'0 0.0
2014-Jul-28 05:31N 34°37' E 135°26'0 0.0
2014-Jul-28 04:31N 34°37' E 135°26'0 0.0
2014-Jul-28 03:31N 34°37' E 135°26'0 0.0
2014-Jul-28 02:31N 34°37' E 135°26'0 0.0
2014-Jul-28 01:31N 34°37' E 135°26'0 0.0
2014-Jul-28 00:31N 34°37' E 135°26'0 0.0
2014-Jul-27 23:31N 34°37' E 135°26'8 7.8
2014-Jul-27 22:33N 34°35' E 135°17'1817.8
2014-Jul-27 21:33N 34°36' E 134°56'10918.2
2014-Jul-27 15:33N 34°04' E 132°49'2222.4
2014-Jul-27 14:33N 33°48' E 132°30'124 4.8
2014-Jul-26 12:32N 34°34' E 134°49'2121.3
2014-Jul-26 11:34N 34°36' E 135°14'10 9.8
2014-Jul-26 10:32N 34°37' E 135°26'0 0.0
2014-Jul-26 09:32N 34°37' E 135°26'0 0.0
2014-Jul-26 08:32N 34°37' E 135°26'0 0.0
2014-Jul-26 07:32N 34°37' E 135°26'0 0.0
2014-Jul-26 06:32N 34°37' E 135°26'0 0.0
2014-Jul-26 05:32N 34°37' E 135°26'0 0.0
2014-Jul-26 04:32N 34°37' E 135°26'0 0.0
2014-Jul-26 03:26N 34°37' E 135°26'0 0.0
2014-Jul-26 02:20N 34°37' E 135°26'0 0.0
2014-Jul-26 01:26N 34°37' E 135°26'0 0.0
2014-Jul-26 00:32N 34°37' E 135°26'0 0.0
2014-Jul-25 23:30N 34°37' E 135°26'1111.7
2014-Jul-25 22:33N 34°35' E 135°13'1918.5
2014-Jul-25 21:33N 34°34' E 134°50'10617.6
2014-Jul-25 15:31N 34°02' E 132°48'2621.7
2014-Jul-25 14:20N 33°46' E 132°24'131 5.1
2014-Jul-24 12:33N 34°35' E 134°51'2121.1
2014-Jul-24 11:33N 34°36' E 135°17'7 7.0
2014-Jul-24 10:30N 34°37' E 135°26'0 0.0
2014-Jul-24 09:30N 34°37' E 135°26'0 0.0
2014-Jul-24 08:24N 34°37' E 135°26'0 0.0
2014-Jul-24 07:30N 34°37' E 135°26'0 0.0
2014-Jul-24 06:30N 34°37' E 135°26'0 0.0
2014-Jul-24 05:24N 34°37' E 135°26'0 0.0
2014-Jul-24 04:30N 34°37' E 135°26'0 0.0
2014-Jul-24 03:30N 34°37' E 135°26'0 0.0
2014-Jul-24 02:30N 34°37' E 135°26'0 0.0
2014-Jul-24 01:30N 34°37' E 135°26'0 0.0
2014-Jul-24 00:30N 34°37' E 135°26'0 0.0
2014-Jul-23 23:31N 34°37' E 135°26'1212.2
2014-Jul-23 22:33N 34°36' E 135°12'1717.2
2014-Jul-23 21:34N 34°34' E 134°51'9918.1
2014-Jul-23 16:05N 34°09' E 132°55'1121.0
2014-Jul-23 15:33N 34°01' E 132°46'2521.1
2014-Jul-23 14:23N 33°45' E 132°23'21 1.1
2014-Jul-22 18:33N 33°58' E 132°43'11018.3
2014-Jul-22 12:33N 34°34' E 134°49'2020.6
2014-Jul-22 11:33N 34°36' E 135°14'1010.0
2014-Jul-22 10:33N 34°37' E 135°26'0 0.0
2014-Jul-22 09:33N 34°37' E 135°26'0 0.0
2014-Jul-22 08:33N 34°37' E 135°26'0 0.0
2014-Jul-22 07:27N 34°37' E 135°26'0 0.0
2014-Jul-22 06:33N 34°37' E 135°26'0 0.0
2014-Jul-22 05:30N 34°37' E 135°26'0 0.0
2014-Jul-22 04:30N 34°37' E 135°26'0 0.0
2014-Jul-22 03:30N 34°37' E 135°26'0 0.0
2014-Jul-22 02:18N 34°37' E 135°26'0 0.0
2014-Jul-22 01:30N 34°37' E 135°26'0 0.0
2014-Jul-22 00:30N 34°37' E 135°26'0 0.0
2014-Jul-21 23:33N 34°37' E 135°26'1312.7
2014-Jul-21 22:33N 34°35' E 135°11'1717.0
2014-Jul-21 21:34N 34°33' E 134°50'  

Dump ship's entire track history